KMHT/MHT METAR and TAF weather

Enter ICAO airport designator
Station Type Date Time Source
KMHT METAR 2019/10/22 15:53 UTC NOAA

KMHT 221553Z 10011KT 10SM SCT018 SCT180 BKN200 BKN250 13/08 A3012 RMK AO2 SLP216 T01330083


Station Type Date Time Source
KMHT Decoded METAR 2019/10/22 15:53 UTC NOAA

MANCHESTER AIRPORT, NH, United States (KMHT) 42-56N 071-26W 81M
Oct 22, 2019 - 11:53 AM EDT / 2019.10.22 1553 UTC
Wind: from the E (100 degrees) at 13 MPH (11 KT):0
Visibility: 10 mile(s):0
Sky conditions: mostly cloudy
Temperature: 55.9 F (13.3 C)
Dew Point: 46.9 F (8.3 C)
Relative Humidity: 71%
Pressure (altimeter): 30.12 in. Hg (1019 hPa)
ob: KMHT 221553Z 10011KT 10SM SCT018 SCT180 BKN200 BKN250 13/08 A3012 RMK AO2 SLP216 T01330083
cycle: 16

Station Type Date Time Source
KMHT TAF 2019/10/22 15:15 UTC NOAA

TAF
AMD KMHT 221513Z 2215/2312 09010KT P6SM SCT015 OVC150
FM222100 08007KT P6SM OVC025
FM230200 08007KT 4SM RA OVC008
FM230500 06005KT 2SM SHRA BR OVC003

Example: see airport list